Haddix, Kentucky
Current Conditions -  °F | °C
As of 2:53 PM on Friday 19 Dec 2014 (Local Time) from KJKL Reporting Station
Clear Clear  
Wind Chill: 38°   Ceiling: Unl
Heat Index: 38°   Visibility: 10mi
Dew Point: 23°   Wind: 0mph
Humidity: 55%   Direction: NA
Pressure: 30.18"   Gusts: NA
Location:  37.532°N, 83.3068°W
Report Text: KJKL 191953Z AUTO 00000KT 10SM CLR 03/M05 A3018 RMK AO2 SLP230 T00331050
Loading
Personal Weather Stations






























Interactive Weather Map New forecast layout! Learn more

10-Day Weather Forecast

Advertisements
Track Severe Weather on mobile